createdAt,value
2022-08-19T00:03:01.353Z,18.20
2022-08-19T00:07:04.484Z,18.30
2022-08-19T00:11:08.424Z,18.40
2022-08-19T00:15:21.124Z,18.30
2022-08-19T00:19:25.835Z,18.40
2022-08-19T00:23:29.276Z,18.50
2022-08-19T00:27:32.062Z,18.50
2022-08-19T00:31:35.189Z,18.50
2022-08-19T00:35:39.499Z,18.50
2022-08-19T00:39:42.295Z,18.50
2022-08-19T00:43:45.451Z,18.50
2022-08-19T00:47:48.291Z,18.50
2022-08-19T00:51:56.154Z,18.50
2022-08-19T00:56:02.019Z,18.50
2022-08-19T01:00:09.630Z,18.50
2022-08-19T01:04:12.391Z,18.50
2022-08-19T01:08:18.056Z,18.40
2022-08-19T01:12:21.165Z,18.40
2022-08-19T01:16:26.986Z,18.50
2022-08-19T01:20:29.929Z,18.50
2022-08-19T01:24:34.088Z,18.50
2022-08-19T01:28:46.807Z,18.50
2022-08-19T01:32:49.593Z,18.40
2022-08-19T01:36:52.418Z,18.30
2022-08-19T01:40:56.539Z,18.30
2022-08-19T01:44:59.450Z,18.30
2022-08-19T01:49:03.510Z,18.20
2022-08-19T01:53:08.681Z,18.20
2022-08-19T01:57:16.039Z,18.20
2022-08-19T02:01:19.404Z,18.30
2022-08-19T02:05:22.471Z,18.20
2022-08-19T02:09:25.254Z,18.20
2022-08-19T02:13:29.939Z,18.10
2022-08-19T02:17:33.010Z,18.10
2022-08-19T02:21:36.115Z,18.20
2022-08-19T02:25:39.131Z,18.10
2022-08-19T02:29:43.264Z,18.20
2022-08-19T02:33:46.395Z,18.10
2022-08-19T02:38:06.751Z,18.20
2022-08-19T02:42:09.477Z,18.20
2022-08-19T02:46:22.103Z,18.30
2022-08-19T02:50:24.931Z,18.30
2022-08-19T02:54:28.267Z,18.20
2022-08-19T02:58:31.218Z,18.30
2022-08-19T03:02:35.428Z,18.30
2022-08-19T03:06:39.835Z,18.30
2022-08-19T03:10:45.938Z,18.30
2022-08-19T03:14:48.702Z,18.30
2022-08-19T03:18:53.823Z,18.30
2022-08-19T03:22:56.611Z,18.10
2022-08-19T03:26:59.933Z,18.10
2022-08-19T03:31:41.467Z,18.00
2022-08-19T03:35:31.835Z,18.10
2022-08-19T03:39:34.809Z,18.10
2022-08-19T03:43:39.090Z,18.10
2022-08-19T03:47:41.864Z,18.30
2022-08-19T03:51:46.906Z,18.30
2022-08-19T03:55:49.638Z,18.40
2022-08-19T03:59:52.467Z,18.40
2022-08-19T04:03:55.827Z,18.40
2022-08-19T04:08:00.302Z,18.50
2022-08-19T04:12:03.591Z,18.40
2022-08-19T04:16:07.428Z,18.40
2022-08-19T04:20:10.894Z,18.30
2022-08-19T04:24:17.284Z,18.40
2022-08-19T04:28:20.117Z,18.40
2022-08-19T04:32:23.636Z,18.40
2022-08-19T04:36:29.345Z,18.30
2022-08-19T04:40:56.906Z,18.40
2022-08-19T04:45:00.434Z,18.40
2022-08-19T04:49:13.128Z,18.20
2022-08-19T04:53:16.671Z,18.10
2022-08-19T04:57:20.758Z,18.10
2022-08-19T05:01:26.803Z,18.10
2022-08-19T05:05:29.574Z,18.10
2022-08-19T05:09:58.356Z,18.20
2022-08-19T05:14:03.560Z,18.20
2022-08-19T05:18:23.886Z,18.20
2022-08-19T05:22:36.605Z,18.20
2022-08-19T05:26:40.634Z,18.10
2022-08-19T05:30:47.475Z,18.30
2022-08-19T05:34:50.453Z,18.40
2022-08-19T05:38:54.090Z,18.60
2022-08-19T05:42:56.923Z,18.80
2022-08-19T05:47:01.822Z,18.90
2022-08-19T05:51:07.258Z,19.00
2022-08-19T05:55:10.321Z,18.80
2022-08-19T05:59:13.201Z,18.90
2022-08-19T06:03:18.274Z,18.80
2022-08-19T06:07:21.495Z,18.80
2022-08-19T06:11:26.847Z,18.90
2022-08-19T06:15:29.655Z,19.00
2022-08-19T06:19:33.797Z,18.90
2022-08-19T06:23:36.580Z,18.70
2022-08-19T06:27:48.253Z,18.70
2022-08-19T06:31:58.148Z,18.70
2022-08-19T06:36:02.407Z,18.60
2022-08-19T06:40:06.598Z,18.80
2022-08-19T06:44:09.906Z,18.90
2022-08-19T06:48:16.071Z,18.90
2022-08-19T06:52:24.105Z,19.10
2022-08-19T06:56:35.479Z,19.20
2022-08-19T07:00:38.379Z,19.30
2022-08-19T07:04:42.589Z,19.50
2022-08-19T07:08:47.870Z,19.70
2022-08-19T07:12:51.681Z,19.80
2022-08-19T07:16:56.990Z,20.00
2022-08-19T07:21:05.354Z,20.10
2022-08-19T07:25:14.406Z,20.00
2022-08-19T07:29:17.709Z,20.00
2022-08-19T07:33:21.610Z,20.00
2022-08-19T07:37:27.356Z,20.00
2022-08-19T07:41:33.686Z,20.40
2022-08-19T07:45:36.540Z,20.70
2022-08-19T07:49:39.382Z,20.70
2022-08-19T07:53:42.274Z,21.20
2022-08-19T07:57:46.380Z,21.60
2022-08-19T08:01:51.023Z,21.10
2022-08-19T08:06:11.577Z,20.60
2022-08-19T08:10:21.174Z,20.50
2022-08-19T08:14:29.299Z,20.20
2022-08-19T08:18:43.090Z,19.70
2022-08-19T08:23:04.537Z,19.40
2022-08-19T08:27:11.397Z,19.30
2022-08-19T08:31:15.887Z,19.30
2022-08-19T08:35:21.629Z,19.30
2022-08-19T08:39:24.419Z,19.40
2022-08-19T08:43:32.505Z,19.30
2022-08-19T08:47:38.882Z,19.20
2022-08-19T08:51:48.574Z,19.10
2022-08-19T08:56:06.581Z,19.00
2022-08-19T09:00:15.169Z,19.00
2022-08-19T09:04:20.160Z,18.80
2022-08-19T09:08:41.028Z,18.60
2022-08-19T09:12:58.475Z,18.70
2022-08-19T09:17:01.587Z,18.80
2022-08-19T09:21:05.830Z,19.00
2022-08-19T09:25:10.784Z,19.00
2022-08-19T09:29:13.552Z,19.10
2022-08-19T09:33:17.046Z,19.20
2022-08-19T09:37:21.157Z,19.20
2022-08-19T09:41:26.735Z,19.00
2022-08-19T09:45:32.054Z,19.10
2022-08-19T09:49:35.084Z,19.20
2022-08-19T09:53:41.173Z,19.30
2022-08-19T09:57:44.050Z,19.40
2022-08-19T10:01:46.894Z,19.70
2022-08-19T10:05:55.188Z,19.60
2022-08-19T10:09:59.725Z,19.50
2022-08-19T10:14:02.746Z,19.60
2022-08-19T10:18:06.190Z,19.70
2022-08-19T10:22:10.161Z,19.60
2022-08-19T10:26:18.910Z,19.90
2022-08-19T10:30:23.110Z,20.00
2022-08-19T10:34:30.633Z,20.50
2022-08-19T10:38:34.718Z,21.10
2022-08-19T10:42:39.436Z,21.70
2022-08-19T10:46:48.777Z,21.30
2022-08-19T10:51:09.177Z,21.50
2022-08-19T10:55:29.876Z,21.90
2022-08-19T10:59:36.242Z,22.40
2022-08-19T11:03:39.096Z,22.80
2022-08-19T11:07:42.392Z,22.70
2022-08-19T11:11:45.618Z,23.30
2022-08-19T11:15:49.696Z,23.60
2022-08-19T11:19:52.650Z,23.50
2022-08-19T11:23:58.263Z,23.30
2022-08-19T11:28:01.166Z,23.10
2022-08-19T11:32:08.420Z,22.90
2022-08-19T11:36:12.098Z,22.50
2022-08-19T11:40:18.095Z,23.00
2022-08-19T11:44:21.164Z,23.40
2022-08-19T11:48:26.722Z,24.20
2022-08-19T11:52:30.571Z,24.30
2022-08-19T11:56:33.825Z,24.50
2022-08-19T12:00:37.467Z,25.60
2022-08-19T12:04:41.661Z,25.20
2022-08-19T12:08:46.020Z,24.50
2022-08-19T12:12:54.683Z,24.20
2022-08-19T12:17:02.975Z,23.40
2022-08-19T12:21:07.558Z,23.00
2022-08-19T12:25:11.432Z,22.90
2022-08-19T12:29:14.630Z,22.70
2022-08-19T12:33:25.175Z,22.90
2022-08-19T12:37:29.353Z,23.00
2022-08-19T12:41:32.116Z,22.80
2022-08-19T12:45:35.385Z,22.90
2022-08-19T12:49:52.026Z,22.30
2022-08-19T12:53:58.922Z,21.80
2022-08-19T12:58:02.345Z,21.70
2022-08-19T13:02:06.260Z,21.70
2022-08-19T13:06:10.641Z,21.80
2022-08-19T13:10:17.303Z,22.00
2022-08-19T13:14:20.074Z,21.90
2022-08-19T13:18:22.876Z,21.80
2022-08-19T13:22:26.350Z,21.90
2022-08-19T13:26:30.627Z,21.50
2022-08-19T13:30:50.866Z,22.50
2022-08-19T13:34:53.631Z,22.60
2022-08-19T13:38:57.605Z,22.80
2022-08-19T13:43:03.757Z,23.50
2022-08-19T13:47:21.850Z,24.00
2022-08-19T13:51:24.872Z,24.00
2022-08-19T13:55:28.871Z,23.40
2022-08-19T13:59:33.426Z,23.00
2022-08-19T14:03:36.902Z,22.70
2022-08-19T14:07:39.822Z,24.30
2022-08-19T14:11:42.582Z,23.20
2022-08-19T14:15:48.181Z,22.70
2022-08-19T14:19:51.026Z,22.10
2022-08-19T14:23:54.345Z,22.10
2022-08-19T14:27:58.333Z,22.00
2022-08-19T14:32:02.434Z,21.70
2022-08-19T14:36:06.080Z,21.50
2022-08-19T14:40:10.307Z,21.40
2022-08-19T14:44:14.229Z,21.30
2022-08-19T14:48:19.341Z,21.30
2022-08-19T14:52:23.198Z,21.00
2022-08-19T14:56:27.632Z,20.80
2022-08-19T15:00:30.518Z,21.10
2022-08-19T15:04:34.740Z,21.20
2022-08-19T15:08:39.928Z,21.10
2022-08-19T15:12:43.579Z,20.90
2022-08-19T15:16:46.329Z,21.10
2022-08-19T15:20:51.826Z,20.90
2022-08-19T15:24:55.842Z,21.00
2022-08-19T15:29:00.254Z,21.00
2022-08-19T15:33:03.408Z,20.80
2022-08-19T15:37:07.592Z,20.90
2022-08-19T15:41:25.205Z,21.10
2022-08-19T15:45:32.519Z,20.80
2022-08-19T15:49:35.887Z,20.60
2022-08-19T15:53:41.638Z,20.30
2022-08-19T15:58:01.798Z,20.10
2022-08-19T16:02:22.463Z,19.90
2022-08-19T16:06:36.364Z,19.60
2022-08-19T16:10:41.082Z,19.50
2022-08-19T16:14:43.844Z,19.50
2022-08-19T16:18:47.236Z,19.30
2022-08-19T16:22:51.258Z,19.20
2022-08-19T16:26:56.494Z,19.20
2022-08-19T16:30:59.264Z,19.30
2022-08-19T16:35:06.781Z,19.40
2022-08-19T16:39:10.242Z,19.40
2022-08-19T16:43:14.416Z,19.30
2022-08-19T16:47:18.047Z,19.20
2022-08-19T16:51:22.533Z,19.10
2022-08-19T16:55:27.941Z,18.90
2022-08-19T16:59:33.016Z,19.00
2022-08-19T17:03:37.476Z,19.00
2022-08-19T17:07:40.236Z,18.90
2022-08-19T17:11:43.100Z,18.80
2022-08-19T17:15:47.222Z,18.90
2022-08-19T17:19:50.065Z,19.00
2022-08-19T17:23:52.792Z,18.90
2022-08-19T17:27:55.722Z,19.00
2022-08-19T17:32:00.056Z,19.00
2022-08-19T17:36:04.401Z,18.90
2022-08-19T17:40:09.998Z,18.90
2022-08-19T17:44:13.338Z,18.90
2022-08-19T17:48:17.728Z,18.80
2022-08-19T17:52:22.002Z,18.70
2022-08-19T17:56:24.886Z,18.70
2022-08-19T18:00:27.949Z,18.70
2022-08-19T18:04:32.715Z,18.60
2022-08-19T18:08:37.098Z,18.50
2022-08-19T18:12:40.284Z,18.50
2022-08-19T18:16:43.048Z,18.50
2022-08-19T18:20:47.334Z,18.50
2022-08-19T18:24:50.256Z,18.40
2022-08-19T18:28:54.140Z,18.30
2022-08-19T18:32:56.938Z,18.20
2022-08-19T18:37:01.094Z,18.20
2022-08-19T18:41:22.013Z,18.20
2022-08-19T18:45:43.758Z,18.10
2022-08-19T18:49:46.587Z,18.10
2022-08-19T18:53:51.329Z,17.90
2022-08-19T18:57:54.333Z,17.90
2022-08-19T19:02:00.025Z,17.90
2022-08-19T19:06:03.581Z,17.80
2022-08-19T19:10:08.720Z,17.70
2022-08-19T19:14:23.289Z,17.70
2022-08-19T19:18:35.434Z,17.70
2022-08-19T19:22:38.409Z,17.60
2022-08-19T19:26:45.439Z,17.50
2022-08-19T19:30:48.238Z,17.50
2022-08-19T19:34:51.143Z,17.40
2022-08-19T19:38:54.110Z,17.50
2022-08-19T19:42:59.774Z,17.40
2022-08-19T19:47:02.583Z,17.40
2022-08-19T19:51:06.791Z,17.30
2022-08-19T19:55:17.900Z,17.20
2022-08-19T19:59:22.826Z,17.30
2022-08-19T20:03:25.635Z,17.30
2022-08-19T20:07:42.302Z,17.40
2022-08-19T20:11:47.003Z,17.50
2022-08-19T20:15:51.406Z,17.50
2022-08-19T20:19:54.179Z,17.50
2022-08-19T20:24:09.109Z,17.50
2022-08-19T20:28:13.386Z,17.50
2022-08-19T20:32:17.550Z,17.40
2022-08-19T20:36:20.367Z,17.40
2022-08-19T20:40:23.203Z,17.50
2022-08-19T20:44:26.002Z,17.50
2022-08-19T20:48:30.490Z,17.50
2022-08-19T20:52:33.983Z,17.40
2022-08-19T20:56:36.741Z,17.40
2022-08-19T21:00:40.055Z,17.50
2022-08-19T21:04:44.242Z,17.50
2022-08-19T21:08:47.084Z,17.40
2022-08-19T21:12:53.347Z,17.40
2022-08-19T21:16:56.192Z,17.40
2022-08-19T21:21:00.283Z,17.50
2022-08-19T21:25:03.567Z,17.40
2022-08-19T21:29:06.418Z,17.50
2022-08-19T21:33:09.194Z,17.50
2022-08-19T21:37:25.166Z,17.50
2022-08-19T21:41:28.893Z,17.50
2022-08-19T21:45:31.643Z,17.50
2022-08-19T21:49:34.961Z,17.50
2022-08-19T21:53:39.124Z,17.40
2022-08-19T21:57:42.606Z,17.40
2022-08-19T22:01:49.672Z,17.40
2022-08-19T22:05:58.512Z,17.20
2022-08-19T22:10:02.670Z,17.20
2022-08-19T22:14:05.631Z,17.30
2022-08-19T22:18:10.654Z,17.20
2022-08-19T22:22:13.915Z,17.20
2022-08-19T22:26:18.786Z,17.20
2022-08-19T22:30:23.582Z,17.30
2022-08-19T22:34:26.330Z,17.30
2022-08-19T22:38:29.174Z,17.20
2022-08-19T22:42:33.333Z,17.20
2022-08-19T22:46:36.156Z,17.20
2022-08-19T22:50:40.838Z,17.20
2022-08-19T22:54:43.694Z,17.20
2022-08-19T22:58:50.140Z,17.20
2022-08-19T23:02:53.442Z,17.30
2022-08-19T23:06:56.218Z,17.20
2022-08-19T23:10:59.002Z,17.20
2022-08-19T23:15:05.762Z,17.30
2022-08-19T23:19:08.558Z,17.20
2022-08-19T23:23:13.787Z,17.30
2022-08-19T23:27:34.177Z,17.30
2022-08-19T23:31:38.366Z,17.20
2022-08-19T23:35:41.949Z,17.30
2022-08-19T23:39:45.295Z,17.30
2022-08-19T23:43:50.868Z,17.50
2022-08-19T23:47:59.261Z,17.30
2022-08-19T23:52:02.095Z,17.30
2022-08-19T23:56:07.161Z,17.30
